createdAt,value
2018-07-05T00:00:00.763Z,25.10
2018-07-05T00:05:13.972Z,25.00
2018-07-05T00:07:53.955Z,24.90
2018-07-05T00:10:33.875Z,24.90
2018-07-05T00:13:13.507Z,24.80
2018-07-05T00:15:53.138Z,24.90
2018-07-05T00:18:32.715Z,24.90
2018-07-05T00:23:46.913Z,25.00
2018-07-05T00:26:26.823Z,25.10
2018-07-05T00:29:06.370Z,25.20
2018-07-05T00:34:20.019Z,25.20
2018-07-05T00:39:33.515Z,25.20
2018-07-05T00:42:13.177Z,25.10
2018-07-05T00:44:53.032Z,25.10
2018-07-05T00:47:32.788Z,25.00
2018-07-05T00:52:46.423Z,24.80
2018-07-05T00:55:26.479Z,24.80
2018-07-05T00:58:06.314Z,24.70
2018-07-05T01:00:46.075Z,24.70
2018-07-05T01:03:25.664Z,24.60
2018-07-05T01:06:05.249Z,24.50
2018-07-05T01:08:44.854Z,24.50
2018-07-05T01:11:24.547Z,24.50
2018-07-05T01:14:04.163Z,24.50
2018-07-05T01:16:44.024Z,24.50
2018-07-05T01:19:24.009Z,24.40
2018-07-05T01:22:03.727Z,24.40
2018-07-05T01:24:43.455Z,24.40
2018-07-05T01:27:24.919Z,24.40
2018-07-05T01:30:04.592Z,24.50
2018-07-05T01:32:44.531Z,24.50
2018-07-05T01:35:24.085Z,24.50
2018-07-05T01:38:03.875Z,24.50
2018-07-05T01:40:44.571Z,24.50
2018-07-05T01:43:24.339Z,24.60
2018-07-05T01:46:04.497Z,24.50
2018-07-05T01:48:44.289Z,24.50
2018-07-05T01:51:24.024Z,24.50
2018-07-05T01:54:03.729Z,24.40
2018-07-05T01:56:43.502Z,24.20
2018-07-05T02:01:56.879Z,24.10
2018-07-05T02:04:36.817Z,24.10
2018-07-05T02:07:16.788Z,24.10
2018-07-05T02:09:56.470Z,24.10
2018-07-05T02:12:37.016Z,24.10
2018-07-05T02:15:17.811Z,24.10
2018-07-05T02:20:31.211Z,24.20
2018-07-05T02:23:10.820Z,24.20
2018-07-05T02:25:50.479Z,24.20
2018-07-05T02:28:30.307Z,24.20
2018-07-05T02:31:10.081Z,24.20
2018-07-05T02:33:50.745Z,24.10
2018-07-05T02:36:34.859Z,24.20
2018-07-05T02:39:20.172Z,24.30
2018-07-05T02:41:59.895Z,24.40
2018-07-05T02:44:39.600Z,24.40
2018-07-05T02:47:19.434Z,24.30
2018-07-05T02:49:59.138Z,24.10
2018-07-05T02:52:38.864Z,24.00
2018-07-05T02:55:18.560Z,23.90
2018-07-05T02:57:58.499Z,23.80
2018-07-05T03:00:38.171Z,23.80
2018-07-05T03:03:18.140Z,23.90
2018-07-05T03:05:58.518Z,24.00
2018-07-05T03:08:38.147Z,24.00
2018-07-05T03:11:17.929Z,24.00
2018-07-05T03:13:57.646Z,24.00
2018-07-05T03:16:37.355Z,23.90
2018-07-05T03:19:17.991Z,23.90
2018-07-05T03:21:57.610Z,23.90
2018-07-05T03:24:37.175Z,23.90
2018-07-05T03:27:17.635Z,23.90
2018-07-05T03:29:57.235Z,24.00
2018-07-05T03:32:36.895Z,24.00
2018-07-05T03:35:17.259Z,24.00
2018-07-05T03:37:56.835Z,23.90
2018-07-05T03:40:36.573Z,23.90
2018-07-05T03:43:16.311Z,23.90
2018-07-05T03:45:55.993Z,24.00
2018-07-05T03:48:35.699Z,24.00
2018-07-05T03:51:16.497Z,24.00
2018-07-05T03:53:57.241Z,24.00
2018-07-05T03:56:36.872Z,24.10
2018-07-05T03:59:16.481Z,24.00
2018-07-05T04:01:56.142Z,23.90
2018-07-05T04:04:35.718Z,23.90
2018-07-05T04:09:49.143Z,24.00
2018-07-05T04:12:28.944Z,24.10
2018-07-05T04:15:08.740Z,24.10
2018-07-05T04:17:48.465Z,24.10
2018-07-05T04:20:28.131Z,24.10
2018-07-05T04:23:08.003Z,24.00
2018-07-05T04:25:47.546Z,24.10
2018-07-05T04:28:27.098Z,24.20
2018-07-05T04:31:08.020Z,24.40
2018-07-05T04:33:48.692Z,24.50
2018-07-05T04:36:28.441Z,24.50
2018-07-05T04:39:08.158Z,24.50
2018-07-05T04:41:47.757Z,24.40
2018-07-05T04:44:27.424Z,24.30
2018-07-05T04:47:07.458Z,24.40
2018-07-05T04:49:47.209Z,24.40
2018-07-05T04:52:26.782Z,24.50
2018-07-05T04:55:06.516Z,24.50
2018-07-05T04:57:46.476Z,24.50
2018-07-05T05:00:26.350Z,24.50
2018-07-05T05:03:06.286Z,24.40
2018-07-05T05:05:46.099Z,24.40
2018-07-05T05:08:25.883Z,24.40
2018-07-05T05:11:05.774Z,24.40
2018-07-05T05:13:45.898Z,24.50
2018-07-05T05:16:26.711Z,24.60
2018-07-05T05:19:06.465Z,24.70
2018-07-05T05:21:46.185Z,24.80
2018-07-05T05:24:26.956Z,25.00
2018-07-05T05:27:06.903Z,25.20
2018-07-05T05:29:46.716Z,25.50
2018-07-05T05:32:26.479Z,25.80
2018-07-05T05:35:06.465Z,26.90
2018-07-05T05:37:48.952Z,28.50
2018-07-05T05:40:29.448Z,29.90
2018-07-05T05:43:14.322Z,31.20
2018-07-05T05:45:54.175Z,32.40
2018-07-05T05:48:39.331Z,33.60
2018-07-05T05:51:24.587Z,34.60
2018-07-05T05:54:09.582Z,35.20
2018-07-05T05:59:42.412Z,36.00
2018-07-05T06:02:23.357Z,36.30
2018-07-05T06:05:11.892Z,36.60
2018-07-05T06:07:55.571Z,37.10
2018-07-05T06:10:37.573Z,37.60
2018-07-05T06:13:24.535Z,36.70
2018-07-05T06:16:08.882Z,35.60
2018-07-05T06:18:49.762Z,34.50
2018-07-05T06:21:30.810Z,33.70
2018-07-05T06:24:11.422Z,32.80
2018-07-05T06:26:51.389Z,32.00
2018-07-05T06:29:31.854Z,31.40
2018-07-05T06:32:11.869Z,30.90
2018-07-05T06:34:52.402Z,30.40
2018-07-05T06:37:35.021Z,30.10
2018-07-05T06:40:14.954Z,30.70
2018-07-05T06:42:54.899Z,32.30
2018-07-05T06:45:34.626Z,34.00
2018-07-05T06:50:49.543Z,35.60
2018-07-05T06:53:29.358Z,35.10
2018-07-05T06:58:42.929Z,35.10
2018-07-05T07:01:22.558Z,35.20
2018-07-05T07:04:02.219Z,35.10
2018-07-05T07:06:42.164Z,34.90
2018-07-05T07:09:21.937Z,34.80
2018-07-05T07:12:01.682Z,34.30
2018-07-05T07:14:42.085Z,33.70
2018-07-05T07:20:30.070Z,32.90
2018-07-05T07:23:15.404Z,32.30
2018-07-05T07:28:34.383Z,31.30
2018-07-05T07:31:23.170Z,31.00
2018-07-05T07:34:03.455Z,30.70
2018-07-05T07:36:43.726Z,30.60
2018-07-05T07:39:26.546Z,30.50
2018-07-05T07:41:54.342Z,30.40
2018-07-05T07:44:21.791Z,30.40
2018-07-05T07:46:51.612Z,30.30
2018-07-05T07:49:20.397Z,30.40
2018-07-05T07:51:47.855Z,30.30
2018-07-05T07:54:15.721Z,30.20
2018-07-05T07:56:44.265Z,30.20
2018-07-05T07:59:26.094Z,30.30
2018-07-05T08:01:53.590Z,30.30
2018-07-05T08:04:24.781Z,30.10
2018-07-05T08:06:58.031Z,30.20
2018-07-05T08:16:14.254Z,30.20
2018-07-05T08:23:42.548Z,29.80
2018-07-05T08:26:22.701Z,29.80
2018-07-05T08:28:50.398Z,29.80
2018-07-05T08:31:23.296Z,29.90
2018-07-05T08:33:50.652Z,30.10
2018-07-05T08:36:18.083Z,30.10
2018-07-05T08:38:45.575Z,30.20
2018-07-05T08:41:12.923Z,30.40
2018-07-05T08:43:40.281Z,30.40
2018-07-05T08:46:07.732Z,30.50
2018-07-05T08:48:35.183Z,30.50
2018-07-05T08:51:02.514Z,30.50
2018-07-05T08:53:29.888Z,30.50
2018-07-05T08:55:57.272Z,30.40
2018-07-05T08:58:24.738Z,30.30
2018-07-05T09:00:52.075Z,30.40
2018-07-05T09:03:26.051Z,30.40
2018-07-05T09:05:53.442Z,30.40
2018-07-05T09:08:37.695Z,30.50
2018-07-05T09:11:05.384Z,30.70
2018-07-05T09:13:32.853Z,30.90
2018-07-05T09:16:03.788Z,31.10
2018-07-05T09:18:31.225Z,31.20
2018-07-05T09:23:26.879Z,31.40
2018-07-05T09:25:54.229Z,31.50
2018-07-05T09:30:49.453Z,31.60
2018-07-05T09:33:20.978Z,31.70
2018-07-05T09:35:48.567Z,31.60
2018-07-05T09:38:16.018Z,31.60
2018-07-05T09:40:43.616Z,31.50
2018-07-05T09:43:10.958Z,31.50
2018-07-05T09:45:38.291Z,31.60
2018-07-05T09:48:05.668Z,31.50
2018-07-05T09:50:33.222Z,31.50
2018-07-05T09:56:16.617Z,31.50
2018-07-05T09:58:44.353Z,31.60
2018-07-05T10:01:53.423Z,31.60
2018-07-05T10:04:46.542Z,31.60
2018-07-05T10:10:24.925Z,31.50
2018-07-05T10:13:36.614Z,31.40
2018-07-05T10:18:31.632Z,31.10
2018-07-05T10:25:54.298Z,31.10
2018-07-05T10:28:21.751Z,31.00
2018-07-05T10:38:24.274Z,30.70
2018-07-05T10:41:05.192Z,30.60
2018-07-05T10:43:44.892Z,30.50
2018-07-05T10:48:58.525Z,30.50
2018-07-05T10:51:38.197Z,30.70
2018-07-05T10:54:17.938Z,31.00
2018-07-05T10:56:57.752Z,31.30
2018-07-05T10:59:37.506Z,31.50
2018-07-05T11:02:17.216Z,31.60
2018-07-05T11:04:57.140Z,31.70
2018-07-05T11:07:37.532Z,31.70
2018-07-05T11:10:17.440Z,31.80
2018-07-05T11:12:57.084Z,31.80
2018-07-05T11:15:36.814Z,31.90
2018-07-05T11:20:50.341Z,32.10
2018-07-05T11:23:30.076Z,32.10
2018-07-05T11:26:09.937Z,32.10
2018-07-05T11:28:51.271Z,32.10
2018-07-05T11:31:31.077Z,31.90
2018-07-05T11:34:10.916Z,31.60
2018-07-05T11:39:27.750Z,31.40
2018-07-05T11:42:07.569Z,31.20
2018-07-05T11:44:47.441Z,31.00
2018-07-05T11:47:27.295Z,30.80
2018-07-05T11:50:07.010Z,30.80
2018-07-05T11:53:01.075Z,31.10
2018-07-05T11:55:41.088Z,31.20
2018-07-05T11:58:21.040Z,31.50
2018-07-05T12:01:01.629Z,31.70
2018-07-05T12:03:42.711Z,31.90
2018-07-05T12:06:23.689Z,31.90
2018-07-05T12:09:05.067Z,31.90
2018-07-05T12:11:45.149Z,32.10
2018-07-05T12:14:25.473Z,32.30
2018-07-05T12:17:05.505Z,32.50
2018-07-05T12:19:45.395Z,32.70
2018-07-05T12:22:25.407Z,32.90
2018-07-05T12:25:21.527Z,32.80
2018-07-05T12:28:01.820Z,32.70
2018-07-05T12:30:41.973Z,32.50
2018-07-05T12:33:22.062Z,32.30
2018-07-05T12:36:02.181Z,32.10
2018-07-05T12:38:42.245Z,32.10
2018-07-05T12:41:22.125Z,32.20
2018-07-05T12:44:02.120Z,32.30
2018-07-05T12:46:41.906Z,32.30
2018-07-05T12:49:21.869Z,32.40
2018-07-05T12:52:01.731Z,32.40
2018-07-05T12:54:41.575Z,32.40
2018-07-05T12:57:21.538Z,32.30
2018-07-05T13:00:01.341Z,32.10
2018-07-05T13:02:40.992Z,31.90
2018-07-05T13:07:55.692Z,31.50
2018-07-05T13:10:36.947Z,31.30
2018-07-05T13:13:16.911Z,31.20
2018-07-05T13:15:56.667Z,31.10
2018-07-05T13:18:36.441Z,31.00
2018-07-05T13:21:16.201Z,31.00
2018-07-05T13:23:55.803Z,30.80
2018-07-05T13:26:35.571Z,30.50
2018-07-05T13:29:15.307Z,30.50
2018-07-05T13:31:55.828Z,30.50
2018-07-05T13:34:35.985Z,30.60
2018-07-05T13:37:15.871Z,30.70
2018-07-05T13:39:55.641Z,30.80
2018-07-05T13:42:35.575Z,30.80
2018-07-05T13:45:15.619Z,30.90
2018-07-05T13:47:55.315Z,31.00
2018-07-05T13:50:35.043Z,30.90
2018-07-05T13:53:15.827Z,31.00
2018-07-05T13:55:55.703Z,31.00
2018-07-05T13:58:35.388Z,31.20
2018-07-05T14:01:15.007Z,31.30
2018-07-05T14:03:54.559Z,31.50
2018-07-05T14:06:34.223Z,31.60
2018-07-05T14:11:47.754Z,31.60
2018-07-05T14:14:27.844Z,31.50
2018-07-05T14:17:07.665Z,31.40
2018-07-05T14:19:47.343Z,31.30
2018-07-05T14:22:27.057Z,31.30
2018-07-05T14:27:41.264Z,31.40
2018-07-05T14:30:20.775Z,31.50
2018-07-05T14:33:00.500Z,31.40
2018-07-05T14:35:40.361Z,31.40
2018-07-05T14:38:20.126Z,31.30
2018-07-05T14:41:00.069Z,31.40
2018-07-05T14:43:39.966Z,31.50
2018-07-05T14:46:20.090Z,31.70
2018-07-05T14:48:59.882Z,31.70
2018-07-05T14:51:40.409Z,31.70
2018-07-05T14:54:20.111Z,31.70
2018-07-05T14:56:59.782Z,31.70
2018-07-05T14:59:39.535Z,31.90
2018-07-05T15:02:19.930Z,31.90
2018-07-05T15:04:59.817Z,31.60
2018-07-05T15:07:39.786Z,31.50
2018-07-05T15:10:20.114Z,31.40
2018-07-05T15:13:00.075Z,31.40
2018-07-05T15:15:40.083Z,31.30
2018-07-05T15:18:19.770Z,31.30
2018-07-05T15:26:07.184Z,31.00
2018-07-05T15:28:46.880Z,31.00
2018-07-05T15:31:26.439Z,30.90
2018-07-05T15:34:06.338Z,30.80
2018-07-05T15:36:47.815Z,30.70
2018-07-05T15:39:27.612Z,30.70
2018-07-05T15:42:07.403Z,30.70
2018-07-05T15:44:47.128Z,30.70
2018-07-05T15:47:26.866Z,30.70
2018-07-05T15:50:07.884Z,30.80
2018-07-05T15:52:47.719Z,30.90
2018-07-05T15:55:27.404Z,31.00
2018-07-05T15:58:07.328Z,30.90
2018-07-05T16:00:47.176Z,30.80
2018-07-05T16:03:27.048Z,30.70
2018-07-05T16:06:06.732Z,30.70
2018-07-05T16:11:21.273Z,30.80
2018-07-05T16:14:01.983Z,30.70
2018-07-05T16:19:15.512Z,30.70
2018-07-05T16:21:55.216Z,30.80
2018-07-05T16:24:35.198Z,30.80
2018-07-05T16:27:15.070Z,30.80
2018-07-05T16:29:54.922Z,30.80
2018-07-05T16:32:34.748Z,30.80
2018-07-05T16:35:14.615Z,30.80
2018-07-05T16:40:29.004Z,30.80
2018-07-05T16:43:08.693Z,30.70
2018-07-05T16:45:48.444Z,30.70
2018-07-05T16:48:29.094Z,30.70
2018-07-05T16:51:08.795Z,30.60
2018-07-05T16:53:49.277Z,30.40
2018-07-05T16:56:29.192Z,30.30
2018-07-05T16:59:08.871Z,30.20
2018-07-05T17:01:48.505Z,30.20
2018-07-05T17:04:28.311Z,30.20
2018-07-05T17:07:08.127Z,30.20
2018-07-05T17:09:48.108Z,30.20
2018-07-05T17:12:28.118Z,30.40
2018-07-05T17:15:08.050Z,30.50
2018-07-05T17:17:47.789Z,30.50
2018-07-05T17:20:27.467Z,30.40
2018-07-05T17:23:07.250Z,30.50
2018-07-05T17:25:46.899Z,30.50
2018-07-05T17:28:26.759Z,30.40
2018-07-05T17:31:06.527Z,30.40
2018-07-05T17:33:46.340Z,30.40
2018-07-05T17:36:26.187Z,30.30
2018-07-05T17:39:06.472Z,30.20
2018-07-05T17:41:46.190Z,30.20
2018-07-05T17:44:26.049Z,30.10
2018-07-05T17:47:05.727Z,30.30
2018-07-05T17:49:45.530Z,30.40
2018-07-05T17:52:25.290Z,30.40
2018-07-05T17:55:04.929Z,30.30
2018-07-05T17:57:44.648Z,30.30
2018-07-05T18:00:24.371Z,30.20
2018-07-05T18:03:04.067Z,30.20
2018-07-05T18:05:43.839Z,30.20
2018-07-05T18:08:23.424Z,30.30
2018-07-05T18:11:04.290Z,30.30
2018-07-05T18:13:44.235Z,30.30
2018-07-05T18:18:57.747Z,30.10
2018-07-05T18:21:37.547Z,30.00
2018-07-05T18:24:17.198Z,30.00
2018-07-05T18:26:56.731Z,29.90
2018-07-05T18:29:36.383Z,29.90
2018-07-05T18:32:16.318Z,29.80
2018-07-05T18:34:55.993Z,29.80
2018-07-05T18:37:35.687Z,29.70
2018-07-05T18:40:15.286Z,29.70
2018-07-05T18:42:55.193Z,29.70
2018-07-05T18:45:34.921Z,29.70
2018-07-05T18:50:48.332Z,29.60
2018-07-05T18:53:29.226Z,29.50
2018-07-05T18:56:08.714Z,29.50
2018-07-05T18:58:48.274Z,29.40
2018-07-05T19:01:27.946Z,29.40
2018-07-05T19:04:07.859Z,29.30
2018-07-05T19:06:47.675Z,29.20
2018-07-05T19:09:27.347Z,29.10
2018-07-05T19:12:07.227Z,29.10
2018-07-05T19:14:47.007Z,29.00
2018-07-05T19:17:27.995Z,29.00
2018-07-05T19:20:07.732Z,28.90
2018-07-05T19:22:47.268Z,28.90
2018-07-05T19:25:27.146Z,28.80
2018-07-05T19:28:08.404Z,28.70
2018-07-05T19:30:54.777Z,28.70
2018-07-05T19:33:34.691Z,28.70
2018-07-05T19:36:15.073Z,28.70
2018-07-05T19:41:28.833Z,28.60
2018-07-05T19:46:42.596Z,28.50
2018-07-05T19:49:22.252Z,28.50
2018-07-05T19:52:01.941Z,28.50
2018-07-05T19:54:41.759Z,28.40
2018-07-05T19:57:21.403Z,28.40
2018-07-05T20:00:01.071Z,28.40
2018-07-05T20:02:40.742Z,28.40
2018-07-05T20:07:54.314Z,28.30
2018-07-05T20:10:35.362Z,28.20
2018-07-05T20:13:15.191Z,28.20
2018-07-05T20:15:55.658Z,28.10
2018-07-05T20:18:35.419Z,28.10
2018-07-05T20:23:49.819Z,28.00
2018-07-05T20:26:29.707Z,28.00
2018-07-05T20:29:10.798Z,27.90
2018-07-05T20:31:50.604Z,27.80
2018-07-05T20:34:30.260Z,27.80
2018-07-05T20:37:09.929Z,27.80
2018-07-05T20:39:49.655Z,27.80
2018-07-05T20:42:31.102Z,27.80
2018-07-05T20:45:11.142Z,27.80
2018-07-05T20:47:51.934Z,27.70
2018-07-05T20:53:24.079Z,27.70
2018-07-05T20:56:03.874Z,27.70
2018-07-05T20:58:43.745Z,27.60
2018-07-05T21:01:23.412Z,27.50
2018-07-05T21:04:03.158Z,27.40
2018-07-05T21:09:16.795Z,27.20
2018-07-05T21:11:56.495Z,27.20
2018-07-05T21:14:37.059Z,27.10
2018-07-05T21:17:16.706Z,27.00
2018-07-05T21:19:57.209Z,27.00
2018-07-05T21:27:53.022Z,26.90
2018-07-05T21:30:32.933Z,26.80
2018-07-05T21:33:12.504Z,26.10
2018-07-05T21:35:53.257Z,26.10
2018-07-05T21:38:32.921Z,26.10
2018-07-05T21:41:12.798Z,26.20
2018-07-05T21:43:52.444Z,26.30
2018-07-05T21:46:32.208Z,26.30
2018-07-05T21:49:11.835Z,26.30
2018-07-05T21:51:51.773Z,26.20
2018-07-05T21:54:31.633Z,26.20
2018-07-05T21:57:11.452Z,26.20
2018-07-05T21:59:51.387Z,26.10
2018-07-05T22:02:31.028Z,26.10
2018-07-05T22:05:13.947Z,26.10
2018-07-05T22:07:54.786Z,26.10
2018-07-05T22:10:34.476Z,26.10
2018-07-05T22:13:16.064Z,26.10
2018-07-05T22:15:55.888Z,26.10
2018-07-05T22:18:41.046Z,26.00
2018-07-05T22:21:20.934Z,26.00
2018-07-05T22:24:07.136Z,26.00
2018-07-05T22:26:47.951Z,25.90
2018-07-05T22:29:33.024Z,25.80
2018-07-05T22:32:12.689Z,25.80
2018-07-05T22:34:53.375Z,25.80
2018-07-05T22:37:33.320Z,25.70
2018-07-05T22:40:12.984Z,25.70
2018-07-05T22:42:53.527Z,25.70
2018-07-05T22:45:34.547Z,25.70
2018-07-05T22:48:14.343Z,25.70
2018-07-05T22:50:54.039Z,25.70
2018-07-05T22:53:34.736Z,25.70
2018-07-05T22:56:14.824Z,25.60
2018-07-05T22:58:54.732Z,25.60
2018-07-05T23:01:34.411Z,25.60
2018-07-05T23:04:14.225Z,25.50
2018-07-05T23:06:53.933Z,25.50
2018-07-05T23:09:34.256Z,25.40
2018-07-05T23:12:14.016Z,25.40
2018-07-05T23:17:27.339Z,25.30
2018-07-05T23:20:06.976Z,25.30
2018-07-05T23:22:46.744Z,25.20
2018-07-05T23:25:26.415Z,25.20
2018-07-05T23:28:05.962Z,25.20
2018-07-05T23:30:45.686Z,25.20
2018-07-05T23:33:26.744Z,25.20
2018-07-05T23:36:06.308Z,25.20
2018-07-05T23:38:45.986Z,25.10
2018-07-05T23:41:25.887Z,25.10
2018-07-05T23:44:05.601Z,25.00
2018-07-05T23:46:46.048Z,25.10
2018-07-05T23:49:25.827Z,25.00
2018-07-05T23:52:05.724Z,24.90
2018-07-05T23:54:45.417Z,24.90
2018-07-05T23:59:59.322Z,24.90
